Tiempo atmosférico en la estación meteorológica de Llimiana, Lleida (515 m.)



Fecha
DESCASC
Temp. máxima en grados centígrados (hora)
DESCASC
Temp. mínima en grados centígrados (hora)
DESCASC
Temp. media en grados centígrados
DESCASC
Racha de viento máxima en m/sg (hora)
DESCASC
Velocidad máxima media en intervalos de 10 minutos(hora)
DESCASC
Precipitaciones diarias en mm
DESCASC
Precipitaciones de 00:00 a 06:00 en mm
DESCASC
Precipitaciones de 06:00 a 12:00 en mm
DESCASC
Precipitaciones de 12:00 a 18:00 en mm
DESCASC
Precipitaciones de 18:00 a 24:00 en mm
DESCASC
16-01-2020 12.4 (16:40) -3.1 (09:10) 4.6 3.06 (16:10) 1.67 (16:10) 0 0 0 0 0
15-01-2020 9.7 (16:20) -4.6 (08:10) 2.5 2.78 (10:20) 1.94 (18:40) 0 0 0 0 0
14-01-2020 10.7 (16:20) -4.7 (07:10) 3 2.78 (14:20) 1.39 (02:30) 0 0 0 0 0
13-01-2020 7 (15:30) -5.8 (08:20) 0.6 4.17 (18:00) 2.22 (17:50) 0.2 0.2 0 0 0
12-01-2020 7.3 (16:30) -4.3 (-00:0) 1.5 2.78 (17:00) 1.67 (17:00) 0 0 0 0 0
11-01-2020 8.7 (15:50) -3 (-00:0) 2.8 5.83 (15:10) 2.78 (16:10) 0.2 0 0.2 0 0
10-01-2020 11 (13:50) 1 (00:00) 6 8.89 (14:40) 4.44 (14:10) 1.4 0 1.4 0 0
09-01-2020 11.3 (16:00) -1.2 (-00:0) 5.1 3.33 (15:40) 2.22 (22:40) 0 0 0 0 0
08-01-2020 10 (16:10) -2.6 (-00:0) 3.7 2.5 (15:10) 1.39 (14:50) 0.2 0 0.2 0 0
07-01-2020 6.8 (16:00) -2.5 (-00:0) 2.2 3.61 (14:50) 1.39 (14:50) 0.2 0 0.2 0 0
06-01-2020 6.2 (16:20) -3.4 (-00:0) 1.4 2.5 (23:30) 1.39 (23:30) 0.2 0 0.2 0 0
05-01-2020 5.3 (16:10) -2.2 (-00:0) 1.6 2.78 (14:20) 1.39 (02:20) 0.2 0 0.2 0 0
04-01-2020 4.7 (16:10) -1.2 (-00:0) 1.7 3.06 (04:10) 1.67 (03:00) 0.2 0 0.2 0 0
03-01-2020 2.8 (16:10) -2 (-00:0) 0.4 7.5 (15:50) 3.89 (14:40) 0 0 0 0 0
02-01-2020 1.1 (15:40) -1.4 (-00:0) -0.1 2.78 (07:40) 1.67 (07:40) 0.2 0 0 0 0.2
01-01-2020 1.7 (16:40) -0.2 (00:00) 0.8 2.78 (14:10) 1.39 (14:10) 0.2 0 0.2 0 0
31-12-2019 2.8 (14:40) 1.1 (00:00) 1.9 2.78 (18:40) 1.67 (05:30) 0.2 0 0 0 0.2
30-12-2019 -- (--) -- (--) -- -- (--) -- (--) 0.4 0.2 0 0.2 0
29-12-2019 5.6 (16:30) -1.6 (-00:0) 2 4.17 (17:10) 1.67 (17:40) 0.2 0 0.2 0 0
28-12-2019 7.7 (16:10) -2.4 (-00:0) 2.6 2.78 (14:30) 1.11 (14:30) 0.2 0 0.2 0 0
27-12-2019 3.9 (00:00) 0.1 (00:00) 2 2.22 (06:40) 1.39 (09:00) 0.4 0.2 0 0 0.2
26-12-2019 10.1 (16:30) 1.2 (00:00) 5.7 3.06 (17:10) 1.39 (13:10) 0.2 0 0.2 0 0
25-12-2019 9.6 (16:20) 1.1 (00:00) 5.4 1.67 (12:40) 0.83 (12:50) 0.2 0 0.2 0 0
24-12-2019 11.8 (16:20) 0.1 (00:00) 6 2.5 (06:30) 1.67 (04:30) 0 0 0 0 0
23-12-2019 14.7 (15:30) 1.3 (00:00) 8 5.56 (00:30) 3.06 (00:20) 0.2 0 0 0.2 0
22-12-2019 13.6 (14:40) 6.3 (00:00) 10 19.44 (08:10) 12.22 (08:10) 0.6 0 0 0.6 0
21-12-2019 12.4 (21:00) 6.1 (00:00) 9.2 18.06 (20:30) 11.11 (21:10) 16 0.2 0.2 10.8 4.8
20-12-2019 14.2 (13:40) 7.3 (00:00) 10.8 19.44 (03:10) 8.06 (03:10) 35.8 15.8 14 0.8 5.2
19-12-2019 10.3 (15:50) 3.7 (02:10) 7 5 (12:40) 2.78 (13:00) 4.4 0 0.2 0 4.2

Gráficas

Temp. máximas Temp. mínimas Temp. medias Precipitaciones Rachas de viento máximas Velocidades máximas media en intervalos de 10 minutos

Datos horarios

Fecha y hora oficial Temperatura (ºC) Velocidad del viento (km/h) Dirección del viento Racha (km/h) Dirección de racha Precipitación (mm) Presión (hPa) Tendencia (hPa) Humedad (%)
2020-01-17 23:00:00 2.4 3 Sudeste 5 Noroeste 0 -- -- 69
2020-01-17 22:00:00 3.7 3 Nordeste 9 Este 0 -- -- 63
2020-01-17 21:00:00 6.2 3 Sudeste 20 Oeste 0 -- -- 54
2020-01-17 20:00:00 6.2 6 Este 10 Este 0 -- -- 59
2020-01-17 19:00:00 7.6 7 Sudeste 15 Norte 0 -- -- 53
2020-01-17 18:00:00 9.9 5 Oeste 39 Oeste 0 -- -- 45
2020-01-17 17:00:00 11.1 16 Noroeste 43 Oeste 0 -- -- 39
2020-01-17 16:00:00 11.9 18 Oeste 27 Oeste 0 -- -- 47
2020-01-17 15:00:00 11.3 23 Noroeste 45 Oeste 0.2 -- -- 51
2020-01-17 14:00:00 13.1 12 Noroeste 33 Noroeste 0 -- -- 48
2020-01-17 13:00:00 9 5 Sudeste 18 Sudeste 0 -- -- 69
2020-01-17 12:00:00 7.7 3 Oeste 7 Oeste 0 -- -- 70
2020-01-17 11:00:00 5.2 3 Oeste 6 Oeste 0 -- -- 79
2020-01-17 10:00:00 2.7 2 Noroeste 6 Norte 0 -- -- 90
2020-01-17 09:00:00 1.3 3 Sudeste 6 Sudeste 0 -- -- 90
2020-01-17 08:00:00 1.6 2 Sur 8 Sudeste 0 -- -- 88
2020-01-17 07:00:00 2.2 3 Oeste 18 Sudeste 0 -- -- 88
2020-01-17 06:00:00 2 15 Sudeste 25 Sudeste 0 -- -- 91
2020-01-17 05:00:00 1.5 2 Norte 4 Norte 0 -- -- 85
2020-01-17 04:00:00 1.7 0 Calma 4 Sudeste 0 -- -- 87
2020-01-17 03:00:00 1.5 0 Calma 3 Este 0 -- -- 84
2020-01-17 02:00:00 2.1 0 Calma 4 Sudeste 0 -- -- 83
2020-01-17 01:00:00 3 2 Nordeste 5 Noroeste 0 -- -- 79
2020-01-17 00:00:00 2.9 0 Calma 5 Este 0 -- -- 80
2020-01-16 23:00:00 3.9 0 Calma 6 Sudeste 0 -- -- 75
2020-01-16 22:00:00 3.7 2 Sudeste 8 Este 0 -- -- 74
2020-01-16 21:00:00 5.2 0 Calma 5 Sudeste 0 -- -- 67
2020-01-16 20:00:00 5.1 0 Calma 5 Sudeste 0 -- -- 67
2020-01-16 19:00:00 6.3 0 Calma 4 Este 0 -- -- 60
2020-01-16 18:00:00 7.3 0 Calma 3 Norte 0 -- -- 57
2020-01-16 17:00:00 11.4 0 Calma 11 Noroeste 0 -- -- 44
2020-01-16 16:00:00 12 5 Noroeste 8 Oeste 0 -- -- 41
2020-01-16 15:00:00 11 3 Oeste 8 Sudoeste 0 -- -- 45
2020-01-16 14:00:00 9.4 3 Oeste 8 Oeste 0 -- -- 51
2020-01-16 13:00:00 6.9 3 Oeste 6 Oeste 0 -- -- 62
2020-01-16 12:00:00 3.9 2 Oeste 6 Oeste 0 -- -- 75
2020-01-16 11:00:00 0.9 0 Calma 3 Oeste 0 -- -- 87
2020-01-16 10:00:00 -1.3 0 Calma 2 Oeste 0 -- -- 91
2020-01-16 09:00:00 -3 0 Calma 2 Nordeste 0 -- -- 90
2020-01-16 08:00:00 -2.5 0 Calma 2 Sudeste 0 -- -- 90
2020-01-16 07:00:00 -2.4 0 Calma 3 Sudeste 0 -- -- 90
2020-01-16 06:00:00 -2.2 0 Calma 2 Sudeste 0 -- -- 88
2020-01-16 05:00:00 -1.6 0 Calma 7 Sudeste 0 -- -- 86
2020-01-16 04:00:00 -1.4 2 Sudeste 3 Norte 0 -- -- 85
2020-01-16 03:00:00 -0.5 0 Calma 6 Sudeste 0 -- -- 85
2020-01-16 02:00:00 -0.5 0 Calma 2 Sudeste 0 -- -- 82
2020-01-16 01:00:00 0.1 0 Calma 5 Norte 0 -- -- 81
2020-01-16 00:00:00 1.4 0 Calma 5 Oeste 0 -- -- 75
2020-01-15 23:00:00 1.4 0 Calma 8 Norte 0 -- -- 75
2020-01-15 22:00:00 2.6 0 Calma 6 Sudeste 0 -- -- 71
2020-01-15 21:00:00 2.2 0 Calma 5 Sudeste 0 -- -- 72
2020-01-15 20:00:00 3.7 0 Calma 4 Nordeste 0 -- -- 65
2020-01-15 19:00:00 4.8 3 Sudeste 9 Este 0 -- -- 61
2020-01-15 18:00:00 5.4 2 Norte 6 Norte 0 -- -- 55
2020-01-15 17:00:00 8.9 0 Calma 6 Oeste 0 -- -- 42
2020-01-15 16:00:00 9.3 4 Oeste 9 Oeste 0 -- -- 42
2020-01-15 15:00:00 8.4 3 Oeste 7 Oeste 0 -- -- 48
2020-01-15 14:00:00 6.3 4 Noroeste 9 Noroeste 0 -- -- 56
2020-01-15 13:00:00 5 3 Oeste 8 Oeste 0 -- -- 64
2020-01-15 12:00:00 0.7 2 Oeste 8 Sudeste 0 -- -- 86
2020-01-15 11:00:00 -2.9 4 Sur 10 Norte 0 -- -- 89
2020-01-15 10:00:00 -3 3 Noroeste 6 Sur 0 -- -- 89
2020-01-15 09:00:00 -3.8 0 Calma 5 Sudeste 0 -- -- 91
2020-01-15 08:00:00 -4.5 0 Calma 6 Norte 0 -- -- 88
2020-01-15 07:00:00 -4.1 2 Norte 5 Norte 0 -- -- 87
2020-01-15 06:00:00 -3.5 0 Calma 4 Norte 0 -- -- 86
2020-01-15 05:00:00 -2.8 0 Calma 2 Este 0 -- -- 87
2020-01-15 04:00:00 -3.1 0 Calma 6 Sudeste 0 -- -- 86
2020-01-15 03:00:00 -2.5 0 Calma 4 Noroeste 0 -- -- 82
2020-01-15 02:00:00 -1.6 3 Norte 6 Norte 0 -- -- 81
2020-01-15 01:00:00 -1.4 3 Sudeste 5 Sudeste 0 -- -- 80
2020-01-15 00:00:00 -0.8 0 Calma 2 Nordeste 0 -- -- 76
2020-01-14 23:00:00 -0.4 0 Calma 4 Este 0 -- -- 75
2020-01-14 22:00:00 0.5 0 Calma 2 Norte 0 -- -- 70
2020-01-14 21:00:00 1.6 0 Calma 4 Este 0 -- -- 66
2020-01-14 20:00:00 2.8 3 Nordeste 6 Norte 0 -- -- 61
2020-01-14 19:00:00 3.8 3 Norte 6 Nordeste 0 -- -- 57
2020-01-14 18:00:00 5 0 Calma 3 Nordeste 0 -- -- 56
2020-01-14 17:00:00 9.6 0 Calma 7 Oeste 0 -- -- 40
2020-01-14 16:00:00 10.5 3 Oeste 9 Oeste 0 -- -- 36
2020-01-14 15:00:00 9.5 5 Oeste 10 Oeste 0 -- -- 35
2020-01-14 14:00:00 8.1 4 Oeste 8 Oeste 0 -- -- 46
2020-01-14 13:00:00 5.9 4 Oeste 7 Oeste 0 -- -- 57
2020-01-14 12:00:00 2.7 3 Sudoeste 6 Oeste 0 -- -- 74
2020-01-14 11:00:00 -1.3 0 Calma 4 Oeste 0 -- -- 92
2020-01-14 10:00:00 -3.4 0 Calma 2 Oeste 0 -- -- 91
2020-01-14 09:00:00 -4.4 0 Calma 2 Oeste 0 -- -- 90
2020-01-14 08:00:00 -4.4 0 Calma 2 Oeste 0 -- -- 90
2020-01-14 07:00:00 -4.6 0 Calma 5 Sudeste 0 -- -- 88
2020-01-14 06:00:00 -4.1 0 Calma 6 Norte 0 -- -- 87
2020-01-14 05:00:00 -3.7 4 Nordeste 8 Norte 0 -- -- 87
2020-01-14 04:00:00 -3.1 3 Sudeste 5 Sudeste 0 -- -- 86
2020-01-14 03:00:00 -2.4 2 Nordeste 9 Norte 0 -- -- 84
2020-01-14 02:00:00 -2.4 2 Este 3 Este 0 -- -- 84
2020-01-14 01:00:00 -2.2 2 Este 3 Norte 0 -- -- 81
2020-01-14 00:00:00 -1.5 0 Calma 7 Norte 0 -- -- 79
2020-01-13 23:00:00 -0.5 3 Este 6 Sudeste 0 -- -- 76
2020-01-13 22:00:00 -0.1 5 Norte 9 Norte 0 -- -- 72
2020-01-13 21:00:00 0.7 6 Norte 10 Norte 0 -- -- 70
2020-01-13 20:00:00 0.8 2 Este 8 Sudeste 0 -- -- 67
2020-01-13 19:00:00 1.6 0 Calma 8 Noroeste 0 -- -- 63
2020-01-13 18:00:00 4 8 Sudeste 15 Sudeste 0 -- -- 54
2020-01-13 17:00:00 5.4 5 Norte 10 Norte 0 -- -- 54
2020-01-13 16:00:00 6.2 4 Noroeste 8 Sur 0 -- -- 49
2020-01-13 15:00:00 6.2 2 Sudoeste 8 Sudoeste 0 -- -- 52
2020-01-13 14:00:00 4.5 2 Oeste 5 Noroeste 0 -- -- 62
2020-01-13 13:00:00 2.4 3 Noroeste 6 Oeste 0 -- -- 79
2020-01-13 12:00:00 0 0 Calma 5 Sur 0 -- -- 89
2020-01-13 11:00:00 -1.9 0 Calma 8 Norte 0 -- -- 92
2020-01-13 10:00:00 -4.3 2 Noroeste 4 Norte 0 -- -- 94
2020-01-13 09:00:00 -5.7 0 Calma 2 Sudeste 0 -- -- 92
2020-01-13 08:00:00 -5.7 0 Calma 6 Norte 0 -- -- 91
2020-01-13 07:00:00 -5.4 0 Calma 2 Norte 0 -- -- 90
2020-01-13 06:00:00 -4.8 2 Norte 4 Sudeste 0 -- -- 89
2020-01-13 05:00:00 -4.3 3 Norte 5 Norte 0 -- -- 89
2020-01-13 04:00:00 -4 0 Calma 3 Sudeste 0 -- -- 89
2020-01-13 03:00:00 -3.4 0 Calma 6 Sudeste 0.2 -- -- 89
2020-01-13 02:00:00 -3.4 0 Calma 5 Norte 0 -- -- 87
2020-01-13 01:00:00 -2.2 2 Este 4 Este 0 -- -- 86
2020-01-13 00:00:00 -1.8 2 Norte 4 Norte 0 -- -- 83
2020-01-12 23:00:00 -1.2 0 Calma 5 Norte 0 -- -- 82
2020-01-12 22:00:00 -0.8 0 Calma 4 Sudeste 0 -- -- 81
2020-01-12 21:00:00 0.5 0 Calma 4 Este 0 -- -- 73
2020-01-12 20:00:00 1.4 2 Este 4 Este 0 -- -- 72
2020-01-12 19:00:00 2.2 2 Sudeste 5 Sudeste 0 -- -- 69
2020-01-12 18:00:00 3.4 0 Calma 8 Sudeste 0 -- -- 65
2020-01-12 17:00:00 6 6 Sudeste 10 Sudeste 0 -- -- 58
2020-01-12 16:00:00 7.1 3 Oeste 9 Oeste 0 -- -- 54
2020-01-12 15:00:00 4.9 3 Noroeste 8 Oeste 0 -- -- 73
2020-01-12 14:00:00 1.4 3 Sudoeste 7 Oeste 0 -- -- 97
2020-01-12 13:00:00 0 2 Oeste 7 Oeste 0 -- -- 99
2020-01-12 12:00:00 -1.2 2 Sudoeste 7 Noroeste 0 -- -- 100
2020-01-12 11:00:00 -2.7 0 Calma 4 Sur 0 -- -- 97
2020-01-12 10:00:00 -3.6 0 Calma 6 Sudeste 0 -- -- 95
2020-01-12 09:00:00 -4 3 Sudeste 8 Sur 0 -- -- 94
2020-01-12 08:00:00 -4 0 Calma 4 Norte 0 -- -- 94
2020-01-12 07:00:00 -4.3 0 Calma 2 Sudeste 0 -- -- 93
2020-01-12 06:00:00 -3.9 0 Calma 6 Norte 0 -- -- 93
2020-01-12 05:00:00 -3.8 0 Calma 5 Norte 0 -- -- 92
2020-01-12 04:00:00 -3.4 0 Calma 3 Norte 0 -- -- 92
2020-01-12 03:00:00 -3.2 0 Calma 4 Nordeste 0 -- -- 91
2020-01-12 02:00:00 -2.5 0 Calma 5 Noroeste 0 -- -- 91
2020-01-12 01:00:00 -2.1 0 Calma 3 Norte 0 -- -- 91
2020-01-12 00:00:00 -1.7 2 Sudeste 6 Norte 0 -- -- 91
2020-01-11 23:00:00 -1.2 3 Este 5 Sudeste 0 -- -- 90
2020-01-11 22:00:00 -0.3 0 Calma 4 Norte 0 -- -- 89
2020-01-11 21:00:00 0.6 0 Calma 4 Norte 0 -- -- 85
2020-01-11 20:00:00 1.5 0 Calma 5 Noroeste 0 -- -- 81
2020-01-11 19:00:00 2.4 2 Sudeste 13 Sudoeste 0 -- -- 78
2020-01-11 18:00:00 3.7 3 Sur 15 Sur 0 -- -- 73
2020-01-11 17:00:00 6.7 4 Sur 19 Sudoeste 0 -- -- 62
2020-01-11 16:00:00 8.7 10 Oeste 21 Sudoeste 0 -- -- 59
2020-01-11 15:00:00 7.5 8 Sudoeste 18 Oeste 0 -- -- 62
2020-01-11 14:00:00 5.4 4 Oeste 10 Oeste 0 -- -- 72
2020-01-11 13:00:00 2.7 3 Oeste 9 Oeste 0 -- -- 100
2020-01-11 12:00:00 -0.5 0 Calma 4 Sudeste 0.2 -- -- 100
2020-01-11 11:00:00 -1.3 0 Calma -- -- 0 -- -- 99
2020-01-11 10:00:00 -2.4 0 Calma -- -- 0 -- -- 96
2020-01-11 09:00:00 -2.8 0 Calma 5 Norte 0 -- -- 95
2020-01-11 08:00:00 -2.5 2 Este 6 Norte 0 -- -- 95
2020-01-11 07:00:00 -2.8 0 Calma 3 Nordeste 0 -- -- 94
2020-01-11 06:00:00 -2.2 0 Calma 4 Sudeste 0 -- -- 94
2020-01-11 05:00:00 -1.8 0 Calma 10 Norte 0 -- -- 93
2020-01-11 04:00:00 -1.2 2 Noroeste 8 Sur 0 -- -- 92
2020-01-11 03:00:00 -0.8 0 Calma 6 Este 0 -- -- 91
2020-01-11 02:00:00 0.1 4 Este 13 Sudeste 0 -- -- 89
2020-01-11 01:00:00 0.5 5 Norte 9 Sudeste 0 -- -- 89
2020-01-11 00:00:00 1 2 Noroeste 5 Norte 0 -- -- 86
2020-01-10 23:00:00 2.5 2 Sudeste 7 Sudeste 0 -- -- 82
2020-01-10 22:00:00 3.3 3 Sudeste 6 Este 0 -- -- 79
2020-01-10 21:00:00 4 2 Norte 13 Sudeste 0 -- -- 78
2020-01-10 20:00:00 5.8 7 Este 14 Este 0 -- -- 72
2020-01-10 19:00:00 6.5 4 Este 8 Sur 0 -- -- 70
2020-01-10 18:00:00 7 3 Sudeste 13 Sur 0 -- -- 73
2020-01-10 17:00:00 8.9 5 Sur 18 Sudoeste 0 -- -- 67
2020-01-10 16:00:00 10.4 11 Sudoeste 28 Sudoeste 0 -- -- 63
2020-01-10 15:00:00 10.5 15 Sudoeste 32 Sudoeste 0 -- -- 63
2020-01-10 14:00:00 11 10 Sudoeste 24 Sudoeste 0 -- -- 63
2020-01-10 13:00:00 9.2 4 Sudoeste 13 Oeste 0 -- -- 75
2020-01-10 12:00:00 7.5 6 Noroeste 12 Noroeste 0 -- -- 85
2020-01-10 11:00:00 4.9 5 Sur 12 Sudeste 0 -- -- 99
2020-01-10 10:00:00 4 2 Este 8 Sudeste 0 -- -- 95
2020-01-10 09:00:00 4.1 6 Norte 11 Sudeste 0 -- -- 93
2020-01-10 08:00:00 3.8 6 Sudeste 9 Sudeste 1 -- -- 92
2020-01-10 07:00:00 4.1 0 Calma 26 Oeste 0.4 -- -- 89
2020-01-10 06:00:00 4.5 11 Sudoeste 29 Sudoeste 0 -- -- 88
2020-01-10 05:00:00 3.7 3 Sudeste 5 Sudeste 0 -- -- 86
2020-01-10 04:00:00 4 3 Norte 6 Este 0 -- -- 84
2020-01-10 03:00:00 4 0 Calma 7 Sudeste 0 -- -- 83
2020-01-10 02:00:00 4 0 Calma 10 Nordeste 0 -- -- 83
2020-01-10 01:00:00 4.5 3 Sudeste 12 Sudeste 0 -- -- 79
2020-01-10 00:00:00 4.5 3 Norte 6 Sudeste 0 -- -- 80
2020-01-09 23:00:00 5.3 2 Noroeste 9 Norte 0 -- -- 76
2020-01-09 22:00:00 5.7 7 Sudeste 10 Sudeste 0 -- -- 72
2020-01-09 21:00:00 4.3 0 Calma 6 Oeste 0 -- -- 78
2020-01-09 20:00:00 6.2 2 Noroeste 12 Norte 0 -- -- 69
2020-01-09 19:00:00 6.9 6 Sudeste 10 Sudeste 0 -- -- 61
2020-01-09 18:00:00 7 0 Calma 4 Este 0 -- -- 72
2020-01-09 17:00:00 9.6 2 Sur 7 Noroeste 0 -- -- 62
2020-01-09 16:00:00 11.3 3 Sudoeste 12 Noroeste 0 -- -- 59
2020-01-09 15:00:00 10.1 4 Noroeste 9 Sudoeste 0 -- -- 63
2020-01-09 14:00:00 7.9 3 Sudoeste 5 Oeste 0 -- -- 78
2020-01-09 13:00:00 3.3 0 Calma 5 Oeste 0 -- -- 100
2020-01-09 12:00:00 1.5 0 Calma 3 Oeste 0 -- -- 100
2020-01-09 11:00:00 0.1 0 Calma 4 Noroeste 0 -- -- 100
2020-01-09 10:00:00 -0.6 0 Calma 2 Oeste 0 -- -- 99
2020-01-09 09:00:00 -1.1 0 Calma 2 Noroeste 0 -- -- 97
2020-01-09 08:00:00 -1.2 0 Calma 2 Sur 0 -- -- 96
2020-01-09 07:00:00 -0.8 0 Calma 4 Sudeste 0 -- -- 96
2020-01-09 06:00:00 -0.6 0 Calma 3 Sudeste 0 -- -- 95
2020-01-09 05:00:00 0.1 0 Calma 3 Norte 0 -- -- 94
2020-01-09 04:00:00 0.6 0 Calma 2 Este 0 -- -- 95
2020-01-09 03:00:00 1.1 0 Calma 3 Noroeste 0 -- -- 93
2020-01-09 02:00:00 1.5 0 Calma 2 Sudeste 0 -- -- 92
2020-01-09 01:00:00 1.9 0 Calma 2 Nordeste 0 -- -- 90
2020-01-09 00:00:00 2.9 0 Calma 4 Nordeste 0 -- -- 89
2020-01-08 23:00:00 3.4 0 Calma 4 Este 0 -- -- 86
2020-01-08 22:00:00 4.2 0 Calma 4 Norte 0 -- -- 83
2020-01-08 21:00:00 5.2 3 Nordeste 4 Nordeste 0 -- -- 78
2020-01-08 20:00:00 6.4 0 Calma 4 Nordeste 0 -- -- 76
2020-01-08 19:00:00 6.7 0 Calma 4 Oeste 0 -- -- 76
2020-01-08 18:00:00 6.8 0 Calma 4 Nordeste 0 -- -- 74
2020-01-08 17:00:00 8.7 0 Calma 6 Sudoeste 0 -- -- 66
2020-01-08 16:00:00 9.8 3 Oeste 9 Oeste 0 -- -- 62
2020-01-08 15:00:00 8.8 4 Oeste 8 Oeste 0 -- -- 68
2020-01-08 14:00:00 5.8 3 Oeste 6 Oeste 0 -- -- 86
2020-01-08 13:00:00 2.5 2 Oeste 8 Oeste 0 -- -- 100
2020-01-08 12:00:00 0.7 2 Noroeste 8 Sudoeste 0.2 -- -- 100
2020-01-08 11:00:00 -1.4 0 Calma 5 Oeste 0 -- -- 100
2020-01-08 10:00:00 -1.7 0 Calma 5 Oeste 0 -- -- 100
2020-01-08 09:00:00 -2.5 0 Calma 4 Este 0 -- -- 99
2020-01-08 08:00:00 -2.1 0 Calma 4 Nordeste 0 -- -- 99
2020-01-08 07:00:00 -2 0 Calma 3 Norte 0 -- -- 99
2020-01-08 06:00:00 -1.9 0 Calma 4 Este 0 -- -- 98
2020-01-08 05:00:00 -1.6 2 Sur 4 Oeste 0 -- -- 97
2020-01-08 04:00:00 -1.4 0 Calma 5 Norte 0 -- -- 97
2020-01-08 03:00:00 -1.3 2 Nordeste 8 Sudeste 0 -- -- 97
2020-01-08 02:00:00 -1.2 0 Calma 5 Sudeste 0 -- -- 96
2020-01-08 01:00:00 -1.5 0 Calma 3 Norte 0 -- -- 95
2020-01-08 00:00:00 -0.5 0 Calma 4 Sudeste 0 -- -- 96
2020-01-07 23:00:00 -0.6 0 Calma 2 Norte 0 -- -- 94
2020-01-07 22:00:00 0 0 Calma 4 Sudeste 0 -- -- 94
2020-01-07 21:00:00 0.5 4 Norte 6 Nordeste 0 -- -- 92
2020-01-07 20:00:00 0.9 0 Calma 5 Noroeste 0 -- -- 89
2020-01-07 19:00:00 1.9 0 Calma 6 Sudeste 0 -- -- 87
2020-01-07 18:00:00 2.8 2 Sudeste 6 Sudeste 0 -- -- 83
2020-01-07 17:00:00 5 2 Sudoeste 8 Sudoeste 0 -- -- 73
2020-01-07 16:00:00 6.8 3 Sudoeste 10 Sudoeste 0 -- -- 70
2020-01-07 15:00:00 5.2 3 Sudoeste 13 Oeste 0 -- -- 81
2020-01-07 14:00:00 2.8 2 Oeste 7 Sur 0 -- -- 100
2020-01-07 13:00:00 0.7 0 Calma 6 Oeste 0 -- -- 100
2020-01-07 12:00:00 -0.9 4 Sudoeste 8 Norte 0.2 -- -- 100
2020-01-07 11:00:00 -1.6 0 Calma 6 Sudeste 0 -- -- 100
2020-01-07 10:00:00 -2.5 0 Calma 5 Norte 0 -- -- 99
2020-01-07 09:00:00 -2.4 0 Calma 4 Sudeste 0 -- -- 99
2020-01-07 08:00:00 -2.4 3 Sudeste 6 Sudeste 0 -- -- 99
2020-01-07 07:00:00 -2 0 Calma 4 Sudoeste 0 -- -- 99
2020-01-07 06:00:00 -1.8 2 Sudeste 4 Sudeste 0 -- -- 98
2020-01-07 05:00:00 -1.3 2 Noroeste 4 Noroeste 0 -- -- 98
2020-01-07 04:00:00 -0.8 0 Calma 6 Este 0 -- -- 98
2020-01-07 03:00:00 -0.8 2 Sudeste 7 Nordeste 0 -- -- 97
2020-01-07 02:00:00 -1 4 Norte 8 Norte 0 -- -- 96
2020-01-07 01:00:00 -0.7 0 Calma 5 Sudeste 0 -- -- 96
2020-01-07 00:00:00 -1.3 3 Sudeste 9 Norte 0 -- -- 94
2020-01-06 23:00:00 -0.8 3 Norte 5 Norte 0 -- -- 93
2020-01-06 22:00:00 0 3 Noroeste 5 Norte 0 -- -- 90
2020-01-06 21:00:00 0.7 4 Sudeste 8 Sudeste 0 -- -- 92
2020-01-06 20:00:00 1.5 0 Calma 3 Sudeste 0 -- -- 88
2020-01-06 19:00:00 1.7 0 Calma 6 Norte 0 -- -- 86
2020-01-06 18:00:00 2.8 0 Calma 3 Sudeste 0 -- -- 85
2020-01-06 17:00:00 4.6 2 Sur 4 Oeste 0 -- -- 76
2020-01-06 16:00:00 5.8 3 Oeste 7 Oeste 0 -- -- 76
2020-01-06 15:00:00 3.9 4 Oeste 7 Oeste 0 -- -- 100
2020-01-06 14:00:00 1 0 Calma 6 Noroeste 0 -- -- 100
2020-01-06 13:00:00 -0.2 2 Oeste 6 Noroeste 0 -- -- 100
2020-01-06 12:00:00 -1.4 0 Calma 5 Sudoeste 0.2 -- -- 100
2020-01-06 11:00:00 -2.2 0 Calma 4 Sur 0 -- -- 100
2020-01-06 10:00:00 -2.9 0 Calma 6 Noroeste 0 -- -- 100